Airfield :
LOGIN :

Register | Disclaimer

   EN    FR    IT 

 










Legend :    VFR   Marginal VFR   IFR   Intensive IFR   Very Intensive IFR
Visi :
Ceiling :
>= 8 km
>= 3000ft
5 to 8 km
1000 to 3000 ft
1500m to 5 km
500 to 1000 ft
800 to 1500m
200 to 500 ft
< 800m
< 200 ft
Symbols :   Thunderstorms  Fog  Heavy snow  Heavy precipitations  Wind > 20 kt
SIGMETs :     Misc.  Thunderstorms  Icing  Turbulence  Mountain Waves  Volcanic Ashes






- Airport Elevation : 26 ft
- IATA code : BIA


LFKB - Bastia

CURRENT METAR :
  • 211730Z AUTO 00000KT CAVOK 18/14 Q1014 NOSIG

EXPIRED METARs :
  • 211700Z AUTO VRB02KT CAVOK 18/14 Q1014 NOSIG
  • 211630Z AUTO 04002KT CAVOK 19/15 Q1014 NOSIG
  • 211600Z AUTO 06003KT 9999 FEW074 SCT170 BKN220 20/15 Q1014 NOSIG
  • 211530Z AUTO 03003KT 340V080 CAVOK 21/12 Q1014 NOSIG
  • 211500Z AUTO 07004KT 030V130 CAVOK 21/13 Q1014 NOSIG

TAF TAF LFKB
Valid from the 21 at 15:00 until the 22 at 15:00 UTC


211400Z 2115/2215 VRB03KT CAVOK TX22/2212Z TN16/2121Z
BECMG 2210/2212 04010KT
ATIS : +33 4 95 59 19 40



MET'MAP, your aeronautical weather chart ! - Copyright ORBIFLY December 2007 - Disclaimer

ORBIFLY MET'MAP TEAM :

Programming & Development : Alexandra Zaïnal
Concept & original design : Baudouin d'Aumeries
Assistance for programming : Marc-Olivier Méhu
Technical & hardware support : Manuel Goepfert

Contact : metmap@orbifly.com




SOURCES & CREDITS :

   NOAA